sensor_id;sensor_type;location;lat;lon;timestamp;P1;durP1;ratioP1;P2;durP2;ratioP2
7899;SDS011;3995;50.856;4.404;2022-11-14T00:00:10;12.20;;;10.77;;
7899;SDS011;3995;50.856;4.404;2022-11-14T00:02:38;12.87;;;11.17;;
7899;SDS011;3995;50.856;4.404;2022-11-14T00:05:07;10.70;;;9.63;;
7899;SDS011;3995;50.856;4.404;2022-11-14T00:07:34;12.63;;;11.03;;
7899;SDS011;3995;50.856;4.404;2022-11-14T00:10:03;10.63;;;9.27;;
7899;SDS011;3995;50.856;4.404;2022-11-14T00:12:31;11.43;;;10.23;;
7899;SDS011;3995;50.856;4.404;2022-11-14T00:14:58;11.80;;;10.40;;
7899;SDS011;3995;50.856;4.404;2022-11-14T00:17:25;11.23;;;9.57;;
7899;SDS011;3995;50.856;4.404;2022-11-14T00:19:52;11.13;;;9.90;;
7899;SDS011;3995;50.856;4.404;2022-11-14T00:22:20;10.30;;;9.30;;
7899;SDS011;3995;50.856;4.404;2022-11-14T00:24:47;11.10;;;9.40;;
7899;SDS011;3995;50.856;4.404;2022-11-14T00:27:16;10.37;;;9.10;;
7899;SDS011;3995;50.856;4.404;2022-11-14T00:29:43;9.80;;;8.80;;
7899;SDS011;3995;50.856;4.404;2022-11-14T00:32:10;11.90;;;8.80;;
7899;SDS011;3995;50.856;4.404;2022-11-14T00:34:37;9.03;;;8.13;;
7899;SDS011;3995;50.856;4.404;2022-11-14T00:37:03;11.03;;;9.50;;
7899;SDS011;3995;50.856;4.404;2022-11-14T00:39:30;12.77;;;9.40;;
7899;SDS011;3995;50.856;4.404;2022-11-14T00:41:58;10.70;;;8.70;;
7899;SDS011;3995;50.856;4.404;2022-11-14T00:44:26;12.60;;;8.90;;
7899;SDS011;3995;50.856;4.404;2022-11-14T00:46:54;12.10;;;8.47;;
7899;SDS011;3995;50.856;4.404;2022-11-14T00:49:21;9.13;;;8.00;;
7899;SDS011;3995;50.856;4.404;2022-11-14T00:51:48;12.37;;;9.20;;
7899;SDS011;3995;50.856;4.404;2022-11-14T00:54:15;9.80;;;8.80;;
7899;SDS011;3995;50.856;4.404;2022-11-14T00:56:42;12.00;;;8.33;;
7899;SDS011;3995;50.856;4.404;2022-11-14T00:59:10;12.70;;;10.00;;
7899;SDS011;3995;50.856;4.404;2022-11-14T01:01:38;11.50;;;9.67;;
7899;SDS011;3995;50.856;4.404;2022-11-14T01:04:05;12.03;;;9.80;;
7899;SDS011;3995;50.856;4.404;2022-11-14T01:06:33;10.40;;;8.73;;
7899;SDS011;3995;50.856;4.404;2022-11-14T01:08:59;10.47;;;8.87;;
7899;SDS011;3995;50.856;4.404;2022-11-14T01:11:27;10.03;;;9.00;;
7899;SDS011;3995;50.856;4.404;2022-11-14T01:13:54;9.03;;;8.10;;
7899;SDS011;3995;50.856;4.404;2022-11-14T01:16:22;9.63;;;8.57;;
7899;SDS011;3995;50.856;4.404;2022-11-14T01:18:50;10.93;;;8.53;;
7899;SDS011;3995;50.856;4.404;2022-11-14T01:21:17;10.00;;;8.30;;
7899;SDS011;3995;50.856;4.404;2022-11-14T01:23:44;9.87;;;8.27;;
7899;SDS011;3995;50.856;4.404;2022-11-14T01:26:12;9.03;;;8.13;;
7899;SDS011;3995;50.856;4.404;2022-11-14T01:28:39;9.60;;;8.60;;
7899;SDS011;3995;50.856;4.404;2022-11-14T01:31:08;10.83;;;8.47;;
7899;SDS011;3995;50.856;4.404;2022-11-14T01:33:36;9.03;;;8.20;;
7899;SDS011;3995;50.856;4.404;2022-11-14T01:36:06;10.30;;;8.33;;
7899;SDS011;3995;50.856;4.404;2022-11-14T01:38:34;9.40;;;8.40;;
7899;SDS011;3995;50.856;4.404;2022-11-14T01:41:02;11.53;;;8.90;;
7899;SDS011;3995;50.856;4.404;2022-11-14T01:43:31;11.90;;;7.90;;
7899;SDS011;3995;50.856;4.404;2022-11-14T01:46:00;11.57;;;8.63;;
7899;SDS011;3995;50.856;4.404;2022-11-14T01:48:30;9.73;;;8.23;;
7899;SDS011;3995;50.856;4.404;2022-11-14T01:51:02;9.30;;;8.33;;
7899;SDS011;3995;50.856;4.404;2022-11-14T01:53:38;8.23;;;7.37;;
7899;SDS011;3995;50.856;4.404;2022-11-14T01:56:06;9.43;;;8.53;;
7899;SDS011;3995;50.856;4.404;2022-11-14T01:58:37;10.33;;;7.73;;
7899;SDS011;3995;50.856;4.404;2022-11-14T02:01:09;8.97;;;7.83;;
7899;SDS011;3995;50.856;4.404;2022-11-14T02:03:38;8.10;;;7.23;;
7899;SDS011;3995;50.856;4.404;2022-11-14T02:06:11;9.63;;;7.30;;
7899;SDS011;3995;50.856;4.404;2022-11-14T02:08:40;10.13;;;6.80;;
7899;SDS011;3995;50.856;4.404;2022-11-14T02:11:08;8.83;;;6.97;;
7899;SDS011;3995;50.856;4.404;2022-11-14T02:13:36;8.13;;;7.33;;
7899;SDS011;3995;50.856;4.404;2022-11-14T02:16:03;8.50;;;7.53;;
7899;SDS011;3995;50.856;4.404;2022-11-14T02:18:30;10.53;;;8.10;;
7899;SDS011;3995;50.856;4.404;2022-11-14T02:20:59;9.03;;;7.17;;
7899;SDS011;3995;50.856;4.404;2022-11-14T02:23:27;8.50;;;7.60;;
7899;SDS011;3995;50.856;4.404;2022-11-14T02:25:55;8.07;;;7.20;;
7899;SDS011;3995;50.856;4.404;2022-11-14T02:28:22;7.93;;;6.70;;
7899;SDS011;3995;50.856;4.404;2022-11-14T02:30:50;8.60;;;7.70;;
7899;SDS011;3995;50.856;4.404;2022-11-14T02:33:17;8.70;;;6.57;;
7899;SDS011;3995;50.856;4.404;2022-11-14T02:35:45;8.87;;;7.97;;
7899;SDS011;3995;50.856;4.404;2022-11-14T02:38:13;11.80;;;6.30;;
7899;SDS011;3995;50.856;4.404;2022-11-14T02:40:40;9.30;;;7.57;;
7899;SDS011;3995;50.856;4.404;2022-11-14T02:43:07;9.73;;;7.93;;
7899;SDS011;3995;50.856;4.404;2022-11-14T02:45:34;8.33;;;7.43;;
7899;SDS011;3995;50.856;4.404;2022-11-14T02:48:01;8.17;;;6.80;;
7899;SDS011;3995;50.856;4.404;2022-11-14T02:50:29;11.70;;;6.63;;
7899;SDS011;3995;50.856;4.404;2022-11-14T02:52:56;8.00;;;6.83;;
7899;SDS011;3995;50.856;4.404;2022-11-14T02:55:24;8.80;;;6.73;;
7899;SDS011;3995;50.856;4.404;2022-11-14T02:57:51;7.83;;;6.57;;
7899;SDS011;3995;50.856;4.404;2022-11-14T03:00:19;10.03;;;8.00;;
7899;SDS011;3995;50.856;4.404;2022-11-14T03:02:46;8.67;;;7.07;;
7899;SDS011;3995;50.856;4.404;2022-11-14T03:05:13;10.23;;;7.17;;
7899;SDS011;3995;50.856;4.404;2022-11-14T03:07:40;7.63;;;6.80;;
7899;SDS011;3995;50.856;4.404;2022-11-14T03:10:08;7.57;;;6.17;;
7899;SDS011;3995;50.856;4.404;2022-11-14T03:12:37;8.40;;;7.50;;
7899;SDS011;3995;50.856;4.404;2022-11-14T03:15:04;11.33;;;6.87;;
7899;SDS011;3995;50.856;4.404;2022-11-14T03:17:33;8.15;;;7.03;;
7899;SDS011;3995;50.856;4.404;2022-11-14T03:20:00;7.07;;;6.30;;
7899;SDS011;3995;50.856;4.404;2022-11-14T03:22:27;8.40;;;6.97;;
7899;SDS011;3995;50.856;4.404;2022-11-14T03:24:54;9.57;;;6.80;;
7899;SDS011;3995;50.856;4.404;2022-11-14T03:27:22;7.53;;;5.82;;
7899;SDS011;3995;50.856;4.404;2022-11-14T03:29:50;6.50;;;5.80;;
7899;SDS011;3995;50.856;4.404;2022-11-14T03:32:18;5.97;;;5.40;;
7899;SDS011;3995;50.856;4.404;2022-11-14T03:34:45;7.00;;;5.83;;
7899;SDS011;3995;50.856;4.404;2022-11-14T03:37:12;6.63;;;5.95;;
7899;SDS011;3995;50.856;4.404;2022-11-14T03:39:39;6.53;;;5.82;;
7899;SDS011;3995;50.856;4.404;2022-11-14T03:42:06;7.40;;;5.65;;
7899;SDS011;3995;50.856;4.404;2022-11-14T03:44:34;6.38;;;5.70;;
7899;SDS011;3995;50.856;4.404;2022-11-14T03:47:02;6.63;;;5.70;;
7899;SDS011;3995;50.856;4.404;2022-11-14T03:49:29;8.45;;;5.47;;
7899;SDS011;3995;50.856;4.404;2022-11-14T03:51:56;6.77;;;5.13;;
7899;SDS011;3995;50.856;4.404;2022-11-14T03:54:23;6.38;;;5.47;;
7899;SDS011;3995;50.856;4.404;2022-11-14T03:56:50;5.78;;;4.80;;
7899;SDS011;3995;50.856;4.404;2022-11-14T03:59:18;5.50;;;4.57;;
7899;SDS011;3995;50.856;4.404;2022-11-14T04:01:45;5.40;;;4.85;;
7899;SDS011;3995;50.856;4.404;2022-11-14T04:04:14;6.10;;;4.90;;
7899;SDS011;3995;50.856;4.404;2022-11-14T04:06:41;8.32;;;5.22;;
7899;SDS011;3995;50.856;4.404;2022-11-14T04:09:08;5.72;;;5.13;;
7899;SDS011;3995;50.856;4.404;2022-11-14T04:11:35;6.10;;;5.30;;
7899;SDS011;3995;50.856;4.404;2022-11-14T04:14:03;5.10;;;4.60;;
7899;SDS011;3995;50.856;4.404;2022-11-14T04:16:30;7.35;;;5.53;;
7899;SDS011;3995;50.856;4.404;2022-11-14T04:18:57;6.03;;;5.18;;
7899;SDS011;3995;50.856;4.404;2022-11-14T04:21:26;7.50;;;4.77;;
7899;SDS011;3995;50.856;4.404;2022-11-14T04:23:53;6.20;;;5.10;;
7899;SDS011;3995;50.856;4.404;2022-11-14T04:26:20;6.13;;;5.53;;
7899;SDS011;3995;50.856;4.404;2022-11-14T04:28:47;6.40;;;5.30;;
7899;SDS011;3995;50.856;4.404;2022-11-14T04:31:14;8.38;;;4.90;;
7899;SDS011;3995;50.856;4.404;2022-11-14T04:33:42;6.40;;;4.70;;
7899;SDS011;3995;50.856;4.404;2022-11-14T04:36:09;6.47;;;5.33;;
7899;SDS011;3995;50.856;4.404;2022-11-14T04:38:38;7.57;;;6.03;;
7899;SDS011;3995;50.856;4.404;2022-11-14T04:41:05;7.90;;;5.40;;
7899;SDS011;3995;50.856;4.404;2022-11-14T04:43:32;5.70;;;4.90;;
7899;SDS011;3995;50.856;4.404;2022-11-14T04:45:59;6.07;;;5.10;;
7899;SDS011;3995;50.856;4.404;2022-11-14T04:48:28;7.20;;;5.25;;
7899;SDS011;3995;50.856;4.404;2022-11-14T04:50:56;7.13;;;5.10;;
7899;SDS011;3995;50.856;4.404;2022-11-14T04:53:23;6.28;;;5.40;;
7899;SDS011;3995;50.856;4.404;2022-11-14T04:55:51;6.07;;;5.33;;
7899;SDS011;3995;50.856;4.404;2022-11-14T04:58:18;6.10;;;5.30;;
7899;SDS011;3995;50.856;4.404;2022-11-14T05:00:45;7.87;;;6.23;;
7899;SDS011;3995;50.856;4.404;2022-11-14T05:03:12;5.55;;;4.55;;
7899;SDS011;3995;50.856;4.404;2022-11-14T05:05:39;8.18;;;5.15;;
7899;SDS011;3995;50.856;4.404;2022-11-14T05:08:06;6.72;;;4.85;;
7899;SDS011;3995;50.856;4.404;2022-11-14T05:10:33;6.75;;;5.13;;
7899;SDS011;3995;50.856;4.404;2022-11-14T05:13:02;6.45;;;5.03;;
7899;SDS011;3995;50.856;4.404;2022-11-14T05:15:29;7.10;;;5.15;;
7899;SDS011;3995;50.856;4.404;2022-11-14T05:17:58;5.57;;;4.80;;
7899;SDS011;3995;50.856;4.404;2022-11-14T05:20:25;9.98;;;5.25;;
7899;SDS011;3995;50.856;4.404;2022-11-14T05:22:52;8.70;;;5.30;;
7899;SDS011;3995;50.856;4.404;2022-11-14T05:25:20;7.47;;;5.75;;
7899;SDS011;3995;50.856;4.404;2022-11-14T05:27:47;6.78;;;5.15;;
7899;SDS011;3995;50.856;4.404;2022-11-14T05:30:17;8.05;;;4.93;;
7899;SDS011;3995;50.856;4.404;2022-11-14T05:32:44;7.75;;;4.75;;
7899;SDS011;3995;50.856;4.404;2022-11-14T05:35:11;7.25;;;5.35;;
7899;SDS011;3995;50.856;4.404;2022-11-14T05:37:38;7.25;;;4.90;;
7899;SDS011;3995;50.856;4.404;2022-11-14T05:40:06;5.78;;;4.63;;
7899;SDS011;3995;50.856;4.404;2022-11-14T05:42:34;11.27;;;4.82;;
7899;SDS011;3995;50.856;4.404;2022-11-14T05:45:01;5.88;;;4.65;;
7899;SDS011;3995;50.856;4.404;2022-11-14T05:47:30;5.63;;;4.47;;
7899;SDS011;3995;50.856;4.404;2022-11-14T05:49:57;5.45;;;4.47;;
7899;SDS011;3995;50.856;4.404;2022-11-14T05:52:24;6.10;;;4.68;;
7899;SDS011;3995;50.856;4.404;2022-11-14T05:54:51;8.80;;;5.57;;
7899;SDS011;3995;50.856;4.404;2022-11-14T05:57:19;7.90;;;5.50;;
7899;SDS011;3995;50.856;4.404;2022-11-14T05:59:46;6.40;;;5.45;;
7899;SDS011;3995;50.856;4.404;2022-11-14T06:02:13;8.00;;;5.28;;
7899;SDS011;3995;50.856;4.404;2022-11-14T06:04:41;8.25;;;4.95;;
7899;SDS011;3995;50.856;4.404;2022-11-14T06:07:08;5.70;;;4.80;;
7899;SDS011;3995;50.856;4.404;2022-11-14T06:09:36;20.40;;;7.03;;
7899;SDS011;3995;50.856;4.404;2022-11-14T06:12:03;7.23;;;6.10;;
7899;SDS011;3995;50.856;4.404;2022-11-14T06:14:31;6.67;;;5.57;;
7899;SDS011;3995;50.856;4.404;2022-11-14T06:16:59;10.38;;;6.53;;
7899;SDS011;3995;50.856;4.404;2022-11-14T06:19:26;8.05;;;5.28;;
7899;SDS011;3995;50.856;4.404;2022-11-14T06:21:55;7.30;;;5.80;;
7899;SDS011;3995;50.856;4.404;2022-11-14T06:24:22;10.45;;;7.05;;
7899;SDS011;3995;50.856;4.404;2022-11-14T06:26:49;11.53;;;6.63;;
7899;SDS011;3995;50.856;4.404;2022-11-14T06:29:16;14.10;;;6.40;;
7899;SDS011;3995;50.856;4.404;2022-11-14T06:31:43;5.90;;;5.10;;
7899;SDS011;3995;50.856;4.404;2022-11-14T06:34:11;9.85;;;6.10;;
7899;SDS011;3995;50.856;4.404;2022-11-14T06:36:38;6.20;;;4.55;;
7899;SDS011;3995;50.856;4.404;2022-11-14T06:39:07;7.43;;;5.80;;
7899;SDS011;3995;50.856;4.404;2022-11-14T06:41:34;8.05;;;5.28;;
7899;SDS011;3995;50.856;4.404;2022-11-14T06:44:02;8.23;;;5.70;;
7899;SDS011;3995;50.856;4.404;2022-11-14T06:46:29;11.70;;;6.37;;
7899;SDS011;3995;50.856;4.404;2022-11-14T06:48:56;20.02;;;7.50;;
7899;SDS011;3995;50.856;4.404;2022-11-14T06:51:23;26.03;;;9.27;;
7899;SDS011;3995;50.856;4.404;2022-11-14T06:53:50;17.07;;;7.13;;
7899;SDS011;3995;50.856;4.404;2022-11-14T06:56:19;14.17;;;7.80;;
7899;SDS011;3995;50.856;4.404;2022-11-14T06:58:47;17.20;;;7.70;;
7899;SDS011;3995;50.856;4.404;2022-11-14T07:01:15;14.33;;;7.27;;
7899;SDS011;3995;50.856;4.404;2022-11-14T07:03:44;16.23;;;7.82;;
7899;SDS011;3995;50.856;4.404;2022-11-14T07:06:12;12.67;;;7.00;;
7899;SDS011;3995;50.856;4.404;2022-11-14T07:08:41;12.45;;;6.93;;
7899;SDS011;3995;50.856;4.404;2022-11-14T07:11:08;16.87;;;7.60;;
7899;SDS011;3995;50.856;4.404;2022-11-14T07:13:38;21.38;;;7.95;;
7899;SDS011;3995;50.856;4.404;2022-11-14T07:16:05;25.60;;;7.70;;
7899;SDS011;3995;50.856;4.404;2022-11-14T07:18:33;18.53;;;8.30;;
7899;SDS011;3995;50.856;4.404;2022-11-14T07:21:00;15.57;;;8.03;;
7899;SDS011;3995;50.856;4.404;2022-11-14T07:23:30;18.93;;;8.07;;
7899;SDS011;3995;50.856;4.404;2022-11-14T07:25:59;18.57;;;8.30;;
7899;SDS011;3995;50.856;4.404;2022-11-14T07:28:28;21.30;;;7.57;;
7899;SDS011;3995;50.856;4.404;2022-11-14T07:30:57;15.23;;;8.07;;
7899;SDS011;3995;50.856;4.404;2022-11-14T07:33:25;34.70;;;11.67;;
7899;SDS011;3995;50.856;4.404;2022-11-14T07:35:52;20.77;;;8.82;;
7899;SDS011;3995;50.856;4.404;2022-11-14T07:38:19;15.20;;;8.15;;
7899;SDS011;3995;50.856;4.404;2022-11-14T07:40:51;12.57;;;8.30;;
7899;SDS011;3995;50.856;4.404;2022-11-14T07:43:19;24.47;;;7.80;;
7899;SDS011;3995;50.856;4.404;2022-11-14T07:45:46;16.57;;;7.50;;
7899;SDS011;3995;50.856;4.404;2022-11-14T07:48:15;14.70;;;7.23;;
7899;SDS011;3995;50.856;4.404;2022-11-14T07:50:43;12.60;;;7.23;;
7899;SDS011;3995;50.856;4.404;2022-11-14T07:53:11;16.13;;;6.90;;
7899;SDS011;3995;50.856;4.404;2022-11-14T07:55:39;23.20;;;7.13;;
7899;SDS011;3995;50.856;4.404;2022-11-14T07:58:06;17.20;;;7.57;;
7899;SDS011;3995;50.856;4.404;2022-11-14T08:00:33;25.67;;;7.90;;
7899;SDS011;3995;50.856;4.404;2022-11-14T08:03:00;21.93;;;8.33;;
7899;SDS011;3995;50.856;4.404;2022-11-14T08:05:29;11.50;;;7.65;;
7899;SDS011;3995;50.856;4.404;2022-11-14T08:07:56;15.07;;;6.77;;
7899;SDS011;3995;50.856;4.404;2022-11-14T08:10:23;14.27;;;7.90;;
7899;SDS011;3995;50.856;4.404;2022-11-14T08:12:56;18.40;;;6.88;;
7899;SDS011;3995;50.856;4.404;2022-11-14T08:15:24;12.43;;;7.60;;
7899;SDS011;3995;50.856;4.404;2022-11-14T08:17:51;85.43;;;14.33;;
7899;SDS011;3995;50.856;4.404;2022-11-14T08:20:18;9.73;;;6.57;;
7899;SDS011;3995;50.856;4.404;2022-11-14T08:22:47;9.87;;;6.70;;
7899;SDS011;3995;50.856;4.404;2022-11-14T08:25:15;13.63;;;7.97;;
7899;SDS011;3995;50.856;4.404;2022-11-14T08:27:42;8.20;;;6.30;;
7899;SDS011;3995;50.856;4.404;2022-11-14T08:30:10;10.60;;;6.50;;
7899;SDS011;3995;50.856;4.404;2022-11-14T08:32:38;9.93;;;7.17;;
7899;SDS011;3995;50.856;4.404;2022-11-14T08:35:05;11.07;;;7.60;;
7899;SDS011;3995;50.856;4.404;2022-11-14T08:37:32;10.83;;;7.70;;
7899;SDS011;3995;50.856;4.404;2022-11-14T08:40:01;14.40;;;8.37;;
7899;SDS011;3995;50.856;4.404;2022-11-14T08:42:29;17.90;;;13.43;;
7899;SDS011;3995;50.856;4.404;2022-11-14T08:44:56;12.60;;;8.40;;
7899;SDS011;3995;50.856;4.404;2022-11-14T08:47:23;10.00;;;6.97;;
7899;SDS011;3995;50.856;4.404;2022-11-14T08:49:50;10.57;;;7.20;;
7899;SDS011;3995;50.856;4.404;2022-11-14T08:52:18;13.97;;;8.13;;
7899;SDS011;3995;50.856;4.404;2022-11-14T08:54:46;11.80;;;7.77;;
7899;SDS011;3995;50.856;4.404;2022-11-14T08:57:15;14.23;;;8.40;;
7899;SDS011;3995;50.856;4.404;2022-11-14T08:59:42;12.37;;;7.17;;
7899;SDS011;3995;50.856;4.404;2022-11-14T09:02:10;9.43;;;6.70;;
7899;SDS011;3995;50.856;4.404;2022-11-14T09:04:37;10.43;;;7.70;;
7899;SDS011;3995;50.856;4.404;2022-11-14T09:07:05;9.90;;;7.60;;
7899;SDS011;3995;50.856;4.404;2022-11-14T09:09:33;11.50;;;7.83;;
7899;SDS011;3995;50.856;4.404;2022-11-14T09:12:01;10.40;;;7.27;;
7899;SDS011;3995;50.856;4.404;2022-11-14T09:14:29;11.47;;;7.47;;
7899;SDS011;3995;50.856;4.404;2022-11-14T09:16:57;13.10;;;8.00;;
7899;SDS011;3995;50.856;4.404;2022-11-14T09:19:24;12.10;;;7.23;;
7899;SDS011;3995;50.856;4.404;2022-11-14T09:21:52;15.73;;;8.30;;
7899;SDS011;3995;50.856;4.404;2022-11-14T09:24:19;10.40;;;7.00;;
7899;SDS011;3995;50.856;4.404;2022-11-14T09:26:47;9.80;;;7.30;;
7899;SDS011;3995;50.856;4.404;2022-11-14T09:29:16;20.03;;;9.00;;
7899;SDS011;3995;50.856;4.404;2022-11-14T09:31:45;21.27;;;8.20;;
7899;SDS011;3995;50.856;4.404;2022-11-14T09:34:13;11.80;;;8.43;;
7899;SDS011;3995;50.856;4.404;2022-11-14T09:36:40;10.40;;;8.00;;
7899;SDS011;3995;50.856;4.404;2022-11-14T09:39:08;10.50;;;8.10;;
7899;SDS011;3995;50.856;4.404;2022-11-14T09:41:39;12.40;;;8.70;;
7899;SDS011;3995;50.856;4.404;2022-11-14T09:44:22;12.83;;;9.47;;
7899;SDS011;3995;50.856;4.404;2022-11-14T09:47:06;19.70;;;9.40;;
7899;SDS011;3995;50.856;4.404;2022-11-14T09:49:37;14.40;;;8.00;;
7899;SDS011;3995;50.856;4.404;2022-11-14T09:52:08;13.93;;;9.27;;
7899;SDS011;3995;50.856;4.404;2022-11-14T09:54:43;19.70;;;10.27;;
7899;SDS011;3995;50.856;4.404;2022-11-14T09:57:16;17.90;;;10.80;;
7899;SDS011;3995;50.856;4.404;2022-11-14T09:59:45;16.30;;;9.93;;
7899;SDS011;3995;50.856;4.404;2022-11-14T10:02:22;23.13;;;10.20;;
7899;SDS011;3995;50.856;4.404;2022-11-14T10:08:08;13.47;;;10.57;;
7899;SDS011;3995;50.856;4.404;2022-11-14T10:10:52;15.50;;;9.97;;
7899;SDS011;3995;50.856;4.404;2022-11-14T10:13:27;16.77;;;10.17;;
7899;SDS011;3995;50.856;4.404;2022-11-14T10:16:03;19.03;;;10.63;;
7899;SDS011;3995;50.856;4.404;2022-11-14T10:18:41;30.10;;;11.20;;
7899;SDS011;3995;50.856;4.404;2022-11-14T10:21:25;15.73;;;9.97;;
7899;SDS011;3995;50.856;4.404;2022-11-14T10:24:03;18.13;;;10.00;;
7899;SDS011;3995;50.856;4.404;2022-11-14T10:26:39;18.23;;;9.73;;
7899;SDS011;3995;50.856;4.404;2022-11-14T10:32:15;22.73;;;10.00;;
7899;SDS011;3995;50.856;4.404;2022-11-14T10:34:55;11.77;;;9.40;;
7899;SDS011;3995;50.856;4.404;2022-11-14T10:37:28;14.17;;;9.97;;
7899;SDS011;3995;50.856;4.404;2022-11-14T10:40:00;19.23;;;10.67;;
7899;SDS011;3995;50.856;4.404;2022-11-14T10:42:39;17.30;;;9.90;;
7899;SDS011;3995;50.856;4.404;2022-11-14T10:45:13;17.13;;;9.53;;
7899;SDS011;3995;50.856;4.404;2022-11-14T10:47:45;15.37;;;9.60;;
7899;SDS011;3995;50.856;4.404;2022-11-14T10:50:18;24.40;;;10.37;;
7899;SDS011;3995;50.856;4.404;2022-11-14T10:52:48;11.53;;;9.50;;
7899;SDS011;3995;50.856;4.404;2022-11-14T10:55:20;13.80;;;9.30;;
7899;SDS011;3995;50.856;4.404;2022-11-14T10:57:48;16.70;;;10.03;;
7899;SDS011;3995;50.856;4.404;2022-11-14T11:00:17;10.80;;;9.43;;
7899;SDS011;3995;50.856;4.404;2022-11-14T11:02:48;13.23;;;9.87;;
7899;SDS011;3995;50.856;4.404;2022-11-14T11:05:19;13.80;;;10.43;;
7899;SDS011;3995;50.856;4.404;2022-11-14T11:07:48;19.33;;;10.77;;
7899;SDS011;3995;50.856;4.404;2022-11-14T11:10:34;17.73;;;9.70;;
7899;SDS011;3995;50.856;4.404;2022-11-14T11:13:31;15.85;;;10.15;;
7899;SDS011;3995;50.856;4.404;2022-11-14T11:16:01;11.23;;;10.17;;
7899;SDS011;3995;50.856;4.404;2022-11-14T11:18:30;11.50;;;10.30;;
7899;SDS011;3995;50.856;4.404;2022-11-14T11:21:04;18.23;;;11.90;;
7899;SDS011;3995;50.856;4.404;2022-11-14T11:23:34;13.70;;;11.30;;
7899;SDS011;3995;50.856;4.404;2022-11-14T11:26:02;18.37;;;11.00;;
7899;SDS011;3995;50.856;4.404;2022-11-14T11:28:33;15.10;;;11.73;;
7899;SDS011;3995;50.856;4.404;2022-11-14T11:31:01;17.57;;;11.37;;
7899;SDS011;3995;50.856;4.404;2022-11-14T11:33:30;12.00;;;10.70;;
7899;SDS011;3995;50.856;4.404;2022-11-14T11:35:59;13.90;;;11.00;;
7899;SDS011;3995;50.856;4.404;2022-11-14T11:38:30;16.10;;;11.83;;
7899;SDS011;3995;50.856;4.404;2022-11-14T11:41:00;13.80;;;10.90;;
7899;SDS011;3995;50.856;4.404;2022-11-14T11:43:35;13.80;;;11.13;;
7899;SDS011;3995;50.856;4.404;2022-11-14T11:46:10;13.23;;;11.07;;
7899;SDS011;3995;50.856;4.404;2022-11-14T11:48:42;14.00;;;11.48;;
7899;SDS011;3995;50.856;4.404;2022-11-14T11:51:15;19.30;;;11.47;;
7899;SDS011;3995;50.856;4.404;2022-11-14T11:53:49;13.10;;;11.47;;
7899;SDS011;3995;50.856;4.404;2022-11-14T11:56:24;15.52;;;11.80;;
7899;SDS011;3995;50.856;4.404;2022-11-14T11:58:56;14.23;;;11.00;;
7899;SDS011;3995;50.856;4.404;2022-11-14T12:01:28;13.70;;;11.13;;
7899;SDS011;3995;50.856;4.404;2022-11-14T12:03:56;15.68;;;11.95;;
7899;SDS011;3995;50.856;4.404;2022-11-14T12:06:23;14.15;;;12.57;;
7899;SDS011;3995;50.856;4.404;2022-11-14T12:09:02;17.73;;;12.25;;
7899;SDS011;3995;50.856;4.404;2022-11-14T12:11:40;17.95;;;12.48;;
7899;SDS011;3995;50.856;4.404;2022-11-14T12:14:22;17.73;;;12.70;;
7899;SDS011;3995;50.856;4.404;2022-11-14T12:20:07;29.73;;;12.93;;
7899;SDS011;3995;50.856;4.404;2022-11-14T12:23:13;15.83;;;11.97;;
7899;SDS011;3995;50.856;4.404;2022-11-14T12:26:03;15.50;;;12.37;;
7899;SDS011;3995;50.856;4.404;2022-11-14T12:28:42;17.03;;;12.73;;
7899;SDS011;3995;50.856;4.404;2022-11-14T12:31:24;23.55;;;13.85;;
7899;SDS011;3995;50.856;4.404;2022-11-14T12:33:55;16.33;;;12.97;;
7899;SDS011;3995;50.856;4.404;2022-11-14T12:36:26;14.07;;;12.32;;
7899;SDS011;3995;50.856;4.404;2022-11-14T12:38:55;19.38;;;12.55;;
7899;SDS011;3995;50.856;4.404;2022-11-14T12:41:25;19.08;;;14.30;;
7899;SDS011;3995;50.856;4.404;2022-11-14T12:47:14;17.83;;;12.70;;
7899;SDS011;3995;50.856;4.404;2022-11-14T12:50:00;15.50;;;13.27;;
7899;SDS011;3995;50.856;4.404;2022-11-14T12:58:23;15.27;;;13.38;;
7899;SDS011;3995;50.856;4.404;2022-11-14T13:01:21;15.13;;;13.52;;
7899;SDS011;3995;50.856;4.404;2022-11-14T13:04:00;16.35;;;13.63;;
7899;SDS011;3995;50.856;4.404;2022-11-14T13:06:43;17.02;;;13.88;;
7899;SDS011;3995;50.856;4.404;2022-11-14T13:09:28;15.55;;;13.13;;
7899;SDS011;3995;50.856;4.404;2022-11-14T13:11:58;27.15;;;14.98;;
7899;SDS011;3995;50.856;4.404;2022-11-14T13:15:20;17.05;;;14.65;;
7899;SDS011;3995;50.856;4.404;2022-11-14T13:21:16;24.65;;;14.63;;
7899;SDS011;3995;50.856;4.404;2022-11-14T13:24:03;18.00;;;14.63;;
7899;SDS011;3995;50.856;4.404;2022-11-14T13:26:34;15.13;;;13.35;;
7899;SDS011;3995;50.856;4.404;2022-11-14T13:41:45;19.63;;;15.20;;
7899;SDS011;3995;50.856;4.404;2022-11-14T13:44:34;22.52;;;15.02;;
7899;SDS011;3995;50.856;4.404;2022-11-14T13:50:23;23.63;;;15.05;;
7899;SDS011;3995;50.856;4.404;2022-11-14T13:52:56;16.80;;;15.10;;
7899;SDS011;3995;50.856;4.404;2022-11-14T13:55:27;22.90;;;13.97;;
7899;SDS011;3995;50.856;4.404;2022-11-14T13:58:05;25.58;;;15.05;;
7899;SDS011;3995;50.856;4.404;2022-11-14T14:00:55;22.92;;;13.80;;
7899;SDS011;3995;50.856;4.404;2022-11-14T14:03:40;17.80;;;14.73;;
7899;SDS011;3995;50.856;4.404;2022-11-14T14:06:24;37.80;;;15.00;;
7899;SDS011;3995;50.856;4.404;2022-11-14T14:09:08;46.65;;;15.25;;
7899;SDS011;3995;50.856;4.404;2022-11-14T14:11:45;21.77;;;15.40;;
7899;SDS011;3995;50.856;4.404;2022-11-14T14:14:48;25.95;;;15.95;;
7899;SDS011;3995;50.856;4.404;2022-11-14T14:17:29;20.98;;;15.40;;
7899;SDS011;3995;50.856;4.404;2022-11-14T14:20:04;16.58;;;14.77;;
7899;SDS011;3995;50.856;4.404;2022-11-14T14:22:45;23.17;;;15.68;;
7899;SDS011;3995;50.856;4.404;2022-11-14T14:25:18;18.85;;;14.90;;
7899;SDS011;3995;50.856;4.404;2022-11-14T14:27:54;18.13;;;14.55;;
7899;SDS011;3995;50.856;4.404;2022-11-14T14:30:30;21.30;;;16.47;;
7899;SDS011;3995;50.856;4.404;2022-11-14T14:33:01;21.30;;;14.52;;
7899;SDS011;3995;50.856;4.404;2022-11-14T14:35:30;20.45;;;15.50;;
7899;SDS011;3995;50.856;4.404;2022-11-14T14:37:59;16.77;;;13.93;;
7899;SDS011;3995;50.856;4.404;2022-11-14T14:40:28;17.63;;;15.50;;
7899;SDS011;3995;50.856;4.404;2022-11-14T14:42:58;25.10;;;15.57;;
7899;SDS011;3995;50.856;4.404;2022-11-14T14:45:27;21.15;;;14.35;;
7899;SDS011;3995;50.856;4.404;2022-11-14T14:48:02;16.08;;;14.30;;
7899;SDS011;3995;50.856;4.404;2022-11-14T14:50:32;31.33;;;15.70;;
7899;SDS011;3995;50.856;4.404;2022-11-14T14:53:03;21.52;;;14.80;;
7899;SDS011;3995;50.856;4.404;2022-11-14T14:55:32;18.52;;;13.73;;
7899;SDS011;3995;50.856;4.404;2022-11-14T14:58:14;16.40;;;14.32;;
7899;SDS011;3995;50.856;4.404;2022-11-14T15:00:49;19.80;;;13.35;;
7899;SDS011;3995;50.856;4.404;2022-11-14T15:03:18;18.20;;;13.93;;
7899;SDS011;3995;50.856;4.404;2022-11-14T15:05:46;14.48;;;12.95;;
7899;SDS011;3995;50.856;4.404;2022-11-14T15:08:14;14.18;;;12.68;;
7899;SDS011;3995;50.856;4.404;2022-11-14T15:10:43;14.82;;;13.32;;
7899;SDS011;3995;50.856;4.404;2022-11-14T15:13:13;14.93;;;13.50;;
7899;SDS011;3995;50.856;4.404;2022-11-14T15:15:42;15.95;;;14.07;;
7899;SDS011;3995;50.856;4.404;2022-11-14T15:18:13;14.70;;;13.25;;
7899;SDS011;3995;50.856;4.404;2022-11-14T15:23:32;14.60;;;13.00;;
7899;SDS011;3995;50.856;4.404;2022-11-14T15:26:03;16.07;;;11.40;;
7899;SDS011;3995;50.856;4.404;2022-11-14T15:28:37;14.70;;;12.63;;
7899;SDS011;3995;50.856;4.404;2022-11-14T15:31:04;12.07;;;10.88;;
7899;SDS011;3995;50.856;4.404;2022-11-14T15:33:32;14.25;;;11.95;;
7899;SDS011;3995;50.856;4.404;2022-11-14T15:36:04;14.02;;;12.63;;
7899;SDS011;3995;50.856;4.404;2022-11-14T15:38:33;15.80;;;12.80;;
7899;SDS011;3995;50.856;4.404;2022-11-14T15:41:14;14.13;;;12.63;;
7899;SDS011;3995;50.856;4.404;2022-11-14T15:43:48;14.70;;;12.60;;
7899;SDS011;3995;50.856;4.404;2022-11-14T15:46:24;28.33;;;12.15;;
7899;SDS011;3995;50.856;4.404;2022-11-14T15:49:08;11.90;;;10.68;;
7899;SDS011;3995;50.856;4.404;2022-11-14T15:51:43;18.35;;;11.85;;
7899;SDS011;3995;50.856;4.404;2022-11-14T15:54:28;10.95;;;9.85;;
7899;SDS011;3995;50.856;4.404;2022-11-14T15:56:58;11.23;;;9.70;;
7899;SDS011;3995;50.856;4.404;2022-11-14T15:59:28;11.52;;;9.93;;
7899;SDS011;3995;50.856;4.404;2022-11-14T16:01:56;13.33;;;10.30;;